首页
METAR-TAF:

METAR-TAF

机场 :

拉姆薩爾, 伊朗

纬度: 36-54N, 经度: 050-40E, 海拔: -23米

当前天气观测

该预报发布于52分钟前的16:00 UTC
风速2节,风向
温度 11°C
湿度 87%
气压 1018 hPa
能见度10公里或以上
散云层高于2700英尺

METAR: OINR 121600Z 18002KT 9999 SCT027 11/09 Q1018

时间: 20:22 (16:52 UTC)


TAF: 丢失

超过4000个机场的气象观测和天气预报(METAR&TAF报告)。

可查询的气象台以黄色和红色小点在地图上表示。

将鼠标移到小点上方,可查看气象台名称。

然后点击查看天气观测和预报。

如需切换地图:点击带黑十字的绿色按钮放大地图;点击带横线的绿色按钮缩小地图;或者点击绿色箭头查看邻近地区的地图。


METAR-TAF: